sensor_id;sensor_type;location;lat;lon;timestamp;pressure;altitude;pressure_sealevel;temperature;humidity
11672;BME280;5892;43.412;24.612;2023-11-18T00:02:22;99275.31;;;7.88;100.00
11672;BME280;5892;43.412;24.612;2023-11-18T00:04:50;99274.50;;;7.87;100.00
11672;BME280;5892;43.412;24.612;2023-11-18T00:07:17;99269.50;;;7.72;100.00
11672;BME280;5892;43.412;24.612;2023-11-18T00:09:45;99252.03;;;7.73;100.00
11672;BME280;5892;43.412;24.612;2023-11-18T00:12:12;99279.81;;;7.84;100.00
11672;BME280;5892;43.412;24.612;2023-11-18T00:14:39;99281.41;;;7.85;100.00
11672;BME280;5892;43.412;24.612;2023-11-18T00:17:08;99280.91;;;7.91;100.00
11672;BME280;5892;43.412;24.612;2023-11-18T00:19:35;99266.97;;;7.93;100.00
11672;BME280;5892;43.412;24.612;2023-11-18T00:22:02;99269.03;;;7.87;100.00
11672;BME280;5892;43.412;24.612;2023-11-18T00:24:29;99254.53;;;7.61;100.00
11672;BME280;5892;43.412;24.612;2023-11-18T00:27:01;99265.31;;;7.75;100.00
11672;BME280;5892;43.412;24.612;2023-11-18T00:29:31;99295.97;;;7.80;100.00
11672;BME280;5892;43.412;24.612;2023-11-18T00:31:58;99298.25;;;7.87;100.00
11672;BME280;5892;43.412;24.612;2023-11-18T00:34:25;99304.19;;;7.89;100.00
11672;BME280;5892;43.412;24.612;2023-11-18T00:36:52;99300.00;;;7.83;100.00
11672;BME280;5892;43.412;24.612;2023-11-18T00:39:18;99298.25;;;7.87;100.00
11672;BME280;5892;43.412;24.612;2023-11-18T00:41:46;99299.06;;;7.87;100.00
11672;BME280;5892;43.412;24.612;2023-11-18T00:44:14;99301.44;;;7.80;100.00
11672;BME280;5892;43.412;24.612;2023-11-18T00:46:41;99262.72;;;7.61;100.00
11672;BME280;5892;43.412;24.612;2023-11-18T00:49:08;99280.59;;;7.84;100.00
11672;BME280;5892;43.412;24.612;2023-11-18T00:51:36;99276.88;;;7.80;100.00
11672;BME280;5892;43.412;24.612;2023-11-18T00:54:03;99268.69;;;7.80;100.00
11672;BME280;5892;43.412;24.612;2023-11-18T00:56:31;99264.53;;;7.74;100.00
11672;BME280;5892;43.412;24.612;2023-11-18T00:58:58;99270.31;;;7.73;100.00
11672;BME280;5892;43.412;24.612;2023-11-18T01:01:27;99262.28;;;7.76;100.00
11672;BME280;5892;43.412;24.612;2023-11-18T01:03:54;99258.91;;;7.71;100.00
11672;BME280;5892;43.412;24.612;2023-11-18T01:06:24;99263.84;;;7.60;100.00
11672;BME280;5892;43.412;24.612;2023-11-18T01:08:51;99265.97;;;7.72;100.00
11672;BME280;5892;43.412;24.612;2023-11-18T01:11:18;99267.41;;;7.69;100.00
11672;BME280;5892;43.412;24.612;2023-11-18T01:13:47;99289.84;;;7.66;100.00
11672;BME280;5892;43.412;24.612;2023-11-18T01:16:14;99288.88;;;7.62;100.00
11672;BME280;5892;43.412;24.612;2023-11-18T01:18:43;99284.88;;;7.68;100.00
11672;BME280;5892;43.412;24.612;2023-11-18T01:21:11;99247.47;;;7.51;100.00
11672;BME280;5892;43.412;24.612;2023-11-18T01:23:39;99273.34;;;7.71;100.00
11672;BME280;5892;43.412;24.612;2023-11-18T01:26:10;99251.50;;;7.62;100.00
11672;BME280;5892;43.412;24.612;2023-11-18T01:28:38;99246.72;;;7.68;100.00
11672;BME280;5892;43.412;24.612;2023-11-18T01:31:08;99210.56;;;7.54;100.00
11672;BME280;5892;43.412;24.612;2023-11-18T01:33:35;99236.78;;;7.72;100.00
11672;BME280;5892;43.412;24.612;2023-11-18T01:36:05;99247.84;;;7.67;100.00
11672;BME280;5892;43.412;24.612;2023-11-18T01:38:32;99242.66;;;7.57;100.00
11672;BME280;5892;43.412;24.612;2023-11-18T01:40:59;99256.97;;;7.62;100.00
11672;BME280;5892;43.412;24.612;2023-11-18T01:43:26;99269.28;;;7.60;100.00
11672;BME280;5892;43.412;24.612;2023-11-18T01:45:53;99280.84;;;7.65;100.00
11672;BME280;5892;43.412;24.612;2023-11-18T01:48:20;99286.66;;;7.64;100.00
11672;BME280;5892;43.412;24.612;2023-11-18T01:50:48;99289.69;;;7.62;100.00
11672;BME280;5892;43.412;24.612;2023-11-18T01:53:18;99284.38;;;7.66;100.00
11672;BME280;5892;43.412;24.612;2023-11-18T01:55:45;99294.03;;;7.63;100.00
11672;BME280;5892;43.412;24.612;2023-11-18T01:58:12;99284.38;;;7.66;100.00
11672;BME280;5892;43.412;24.612;2023-11-18T02:00:45;99275.09;;;7.67;100.00
11672;BME280;5892;43.412;24.612;2023-11-18T02:03:13;99270.28;;;7.64;100.00
11672;BME280;5892;43.412;24.612;2023-11-18T02:05:40;99275.69;;;7.55;100.00
11672;BME280;5892;43.412;24.612;2023-11-18T02:08:08;99278.72;;;7.54;100.00
11672;BME280;5892;43.412;24.612;2023-11-18T02:10:43;99250.63;;;7.36;100.00
11672;BME280;5892;43.412;24.612;2023-11-18T02:13:21;99286.75;;;7.50;100.00
11672;BME280;5892;43.412;24.612;2023-11-18T02:15:52;99219.59;;;7.15;100.00
11672;BME280;5892;43.412;24.612;2023-11-18T02:18:20;99252.53;;;7.36;100.00
11672;BME280;5892;43.412;24.612;2023-11-18T02:20:49;99274.22;;;7.49;100.00
11672;BME280;5892;43.412;24.612;2023-11-18T02:23:17;99282.41;;;7.49;100.00
11672;BME280;5892;43.412;24.612;2023-11-18T02:25:46;99282.91;;;7.51;100.00
11672;BME280;5892;43.412;24.612;2023-11-18T02:28:13;99271.34;;;7.46;100.00
11672;BME280;5892;43.412;24.612;2023-11-18T02:30:40;99284.16;;;7.45;100.00
11672;BME280;5892;43.412;24.612;2023-11-18T02:33:15;99253.09;;;7.15;100.00
11672;BME280;5892;43.412;24.612;2023-11-18T02:35:48;99295.06;;;7.45;100.00
11672;BME280;5892;43.412;24.612;2023-11-18T02:38:23;99280.22;;;7.29;100.00
11672;BME280;5892;43.412;24.612;2023-11-18T02:41:00;99287.00;;;7.32;100.00
11672;BME280;5892;43.412;24.612;2023-11-18T02:43:30;99279.63;;;7.32;100.00
11672;BME280;5892;43.412;24.612;2023-11-18T02:45:57;99287.31;;;7.39;100.00
11672;BME280;5892;43.412;24.612;2023-11-18T02:48:26;99279.91;;;7.22;100.00
11672;BME280;5892;43.412;24.612;2023-11-18T02:50:53;99306.88;;;7.32;100.00
11672;BME280;5892;43.412;24.612;2023-11-18T02:53:21;99291.44;;;7.28;100.00
11672;BME280;5892;43.412;24.612;2023-11-18T02:55:53;99299.59;;;7.28;100.00
11672;BME280;5892;43.412;24.612;2023-11-18T02:58:21;99301.03;;;7.16;100.00
11672;BME280;5892;43.412;24.612;2023-11-18T03:00:48;99275.97;;;7.06;100.00
11672;BME280;5892;43.412;24.612;2023-11-18T03:03:15;99294.78;;;7.24;100.00
11672;BME280;5892;43.412;24.612;2023-11-18T03:05:43;99299.28;;;7.20;100.00
11672;BME280;5892;43.412;24.612;2023-11-18T03:08:11;99295.50;;;7.08;100.00
11672;BME280;5892;43.412;24.612;2023-11-18T03:10:39;99304.00;;;7.06;100.00
11672;BME280;5892;43.412;24.612;2023-11-18T03:13:10;99311.69;;;7.04;100.00
11672;BME280;5892;43.412;24.612;2023-11-18T03:15:39;99297.69;;;6.97;100.00
11672;BME280;5892;43.412;24.612;2023-11-18T03:18:06;99320.34;;;7.06;100.00
11672;BME280;5892;43.412;24.612;2023-11-18T03:20:33;99319.47;;;6.97;100.00
11672;BME280;5892;43.412;24.612;2023-11-18T03:23:00;99314.16;;;6.92;100.00
11672;BME280;5892;43.412;24.612;2023-11-18T03:25:27;99301.34;;;6.70;100.00
11672;BME280;5892;43.412;24.612;2023-11-18T03:27:54;99279.25;;;6.72;100.00
11672;BME280;5892;43.412;24.612;2023-11-18T03:30:22;99308.53;;;6.89;100.00
11672;BME280;5892;43.412;24.612;2023-11-18T03:32:51;99330.91;;;6.86;100.00
11672;BME280;5892;43.412;24.612;2023-11-18T03:35:18;99321.09;;;6.76;100.00
11672;BME280;5892;43.412;24.612;2023-11-18T03:37:45;99335.09;;;6.83;100.00
11672;BME280;5892;43.412;24.612;2023-11-18T03:40:14;99304.88;;;6.49;100.00
11672;BME280;5892;43.412;24.612;2023-11-18T03:42:42;99325.38;;;6.68;100.00
11672;BME280;5892;43.412;24.612;2023-11-18T03:45:11;99317.34;;;6.50;100.00
11672;BME280;5892;43.412;24.612;2023-11-18T03:47:40;99310.69;;;6.56;100.00
11672;BME280;5892;43.412;24.612;2023-11-18T03:50:09;99193.47;;;5.58;100.00
11672;BME280;5892;43.412;24.612;2023-11-18T03:52:38;99323.13;;;6.70;100.00
11672;BME280;5892;43.412;24.612;2023-11-18T03:55:06;99337.41;;;6.76;100.00
11672;BME280;5892;43.412;24.612;2023-11-18T03:57:33;99336.44;;;6.72;100.00
11672;BME280;5892;43.412;24.612;2023-11-18T04:00:00;99314.28;;;6.65;100.00
11672;BME280;5892;43.412;24.612;2023-11-18T04:02:28;99292.56;;;6.51;100.00
11672;BME280;5892;43.412;24.612;2023-11-18T04:04:55;99305.88;;;6.53;100.00
11672;BME280;5892;43.412;24.612;2023-11-18T04:07:23;99319.13;;;6.68;100.00
11672;BME280;5892;43.412;24.612;2023-11-18T04:09:50;99317.00;;;6.65;100.00
11672;BME280;5892;43.412;24.612;2023-11-18T04:12:19;99317.91;;;6.60;100.00
11672;BME280;5892;43.412;24.612;2023-11-18T04:14:46;99316.75;;;6.53;100.00
11672;BME280;5892;43.412;24.612;2023-11-18T04:17:13;99339.13;;;6.50;100.00
11672;BME280;5892;43.412;24.612;2023-11-18T04:19:40;99341.47;;;6.43;100.00
11672;BME280;5892;43.412;24.612;2023-11-18T04:22:07;99314.97;;;6.34;100.00
11672;BME280;5892;43.412;24.612;2023-11-18T04:24:37;99343.28;;;6.47;100.00
11672;BME280;5892;43.412;24.612;2023-11-18T04:27:05;99340.38;;;6.44;100.00
11672;BME280;5892;43.412;24.612;2023-11-18T04:29:31;99330.09;;;6.41;100.00
11672;BME280;5892;43.412;24.612;2023-11-18T04:32:01;99343.19;;;6.38;100.00
11672;BME280;5892;43.412;24.612;2023-11-18T04:34:28;99328.00;;;6.24;100.00
11672;BME280;5892;43.412;24.612;2023-11-18T04:36:55;99308.72;;;6.12;100.00
11672;BME280;5892;43.412;24.612;2023-11-18T04:39:22;99350.25;;;6.39;100.00
11672;BME280;5892;43.412;24.612;2023-11-18T04:41:52;99319.25;;;6.27;100.00
11672;BME280;5892;43.412;24.612;2023-11-18T04:44:19;99336.22;;;6.46;100.00
11672;BME280;5892;43.412;24.612;2023-11-18T04:46:46;99333.78;;;6.45;100.00
11672;BME280;5892;43.412;24.612;2023-11-18T04:49:13;99334.41;;;6.42;100.00
11672;BME280;5892;43.412;24.612;2023-11-18T04:51:39;99341.59;;;6.37;100.00
11672;BME280;5892;43.412;24.612;2023-11-18T04:54:06;99325.28;;;6.24;100.00
11672;BME280;5892;43.412;24.612;2023-11-18T04:56:33;99352.78;;;6.36;100.00
11672;BME280;5892;43.412;24.612;2023-11-18T04:59:02;99336.25;;;6.32;100.00
11672;BME280;5892;43.412;24.612;2023-11-18T05:01:30;99347.63;;;6.34;100.00
11672;BME280;5892;43.412;24.612;2023-11-18T05:03:57;99331.06;;;6.22;100.00
11672;BME280;5892;43.412;24.612;2023-11-18T05:06:24;99312.22;;;6.12;100.00
11672;BME280;5892;43.412;24.612;2023-11-18T05:08:51;99339.00;;;6.19;100.00
11672;BME280;5892;43.412;24.612;2023-11-18T05:11:18;99328.63;;;6.21;100.00
11672;BME280;5892;43.412;24.612;2023-11-18T05:13:46;99319.66;;;6.20;100.00
11672;BME280;5892;43.412;24.612;2023-11-18T05:16:14;99310.63;;;6.11;100.00
11672;BME280;5892;43.412;24.612;2023-11-18T05:18:41;99300.16;;;6.05;100.00
11672;BME280;5892;43.412;24.612;2023-11-18T05:21:08;99269.75;;;5.75;100.00
11672;BME280;5892;43.412;24.612;2023-11-18T05:23:36;99340.72;;;6.15;100.00
11672;BME280;5892;43.412;24.612;2023-11-18T05:26:04;99338.28;;;6.13;100.00
11672;BME280;5892;43.412;24.612;2023-11-18T05:28:31;99338.19;;;6.18;100.00
11672;BME280;5892;43.412;24.612;2023-11-18T05:30:58;99352.50;;;6.10;100.00
11672;BME280;5892;43.412;24.612;2023-11-18T05:33:28;99319.00;;;6.01;100.00
11672;BME280;5892;43.412;24.612;2023-11-18T05:35:55;99295.13;;;5.98;100.00
11672;BME280;5892;43.412;24.612;2023-11-18T05:38:22;99324.00;;;6.08;100.00
11672;BME280;5892;43.412;24.612;2023-11-18T05:40:52;99330.53;;;6.20;100.00
11672;BME280;5892;43.412;24.612;2023-11-18T05:43:28;99327.63;;;6.17;100.00
11672;BME280;5892;43.412;24.612;2023-11-18T05:46:01;99298.34;;;6.00;100.00
11672;BME280;5892;43.412;24.612;2023-11-18T05:48:48;99301.13;;;5.81;100.00
11672;BME280;5892;43.412;24.612;2023-11-18T05:51:19;99295.91;;;5.85;100.00
11672;BME280;5892;43.412;24.612;2023-11-18T05:53:46;99347.38;;;6.09;100.00
11672;BME280;5892;43.412;24.612;2023-11-18T05:56:13;99322.81;;;5.73;100.00
11672;BME280;5892;43.412;24.612;2023-11-18T05:58:42;99350.69;;;6.19;100.00
11672;BME280;5892;43.412;24.612;2023-11-18T06:01:09;99326.59;;;6.13;100.00
11672;BME280;5892;43.412;24.612;2023-11-18T06:03:37;99335.88;;;6.25;100.00
11672;BME280;5892;43.412;24.612;2023-11-18T06:06:08;99326.13;;;6.11;100.00
11672;BME280;5892;43.412;24.612;2023-11-18T06:08:35;99272.66;;;5.79;100.00
11672;BME280;5892;43.412;24.612;2023-11-18T06:11:16;99341.53;;;6.15;100.00
11672;BME280;5892;43.412;24.612;2023-11-18T06:13:46;99350.28;;;6.26;100.00
11672;BME280;5892;43.412;24.612;2023-11-18T06:16:13;99353.50;;;6.28;100.00
11672;BME280;5892;43.412;24.612;2023-11-18T06:18:41;99341.53;;;6.15;100.00
11672;BME280;5892;43.412;24.612;2023-11-18T06:21:12;99357.13;;;6.23;100.00
11672;BME280;5892;43.412;24.612;2023-11-18T06:23:39;99373.84;;;6.30;100.00
11672;BME280;5892;43.412;24.612;2023-11-18T06:26:07;99367.59;;;6.30;100.00
11672;BME280;5892;43.412;24.612;2023-11-18T06:28:36;99367.13;;;6.28;100.00
11672;BME280;5892;43.412;24.612;2023-11-18T06:31:04;99378.19;;;6.31;100.00
11672;BME280;5892;43.412;24.612;2023-11-18T06:33:36;99370.03;;;6.31;100.00
11672;BME280;5892;43.412;24.612;2023-11-18T06:36:04;99358.63;;;6.29;100.00
11672;BME280;5892;43.412;24.612;2023-11-18T06:38:32;99313.34;;;6.11;100.00
11672;BME280;5892;43.412;24.612;2023-11-18T06:41:00;99317.75;;;6.21;100.00
11672;BME280;5892;43.412;24.612;2023-11-18T06:43:29;99327.09;;;6.28;100.00
11672;BME280;5892;43.412;24.612;2023-11-18T06:46:07;99354.53;;;6.54;100.00
11672;BME280;5892;43.412;24.612;2023-11-18T06:48:36;99355.72;;;6.62;100.00
11672;BME280;5892;43.412;24.612;2023-11-18T06:51:03;99360.06;;;6.63;100.00
11672;BME280;5892;43.412;24.612;2023-11-18T06:53:34;99349.59;;;6.56;100.00
11672;BME280;5892;43.412;24.612;2023-11-18T06:56:01;99336.63;;;6.53;100.00
11672;BME280;5892;43.412;24.612;2023-11-18T06:58:28;99334.88;;;6.57;100.00
11672;BME280;5892;43.412;24.612;2023-11-18T07:00:56;99337.47;;;6.62;100.00
11672;BME280;5892;43.412;24.612;2023-11-18T07:03:23;99325.41;;;6.55;100.00
11672;BME280;5892;43.412;24.612;2023-11-18T07:05:50;99294.81;;;6.35;100.00
11672;BME280;5892;43.412;24.612;2023-11-18T07:08:17;99335.81;;;6.53;100.00
11672;BME280;5892;43.412;24.612;2023-11-18T07:10:45;99362.69;;;6.54;100.00
11672;BME280;5892;43.412;24.612;2023-11-18T07:13:14;99322.44;;;6.43;100.00
11672;BME280;5892;43.412;24.612;2023-11-18T07:15:41;99357.16;;;6.59;100.00
11672;BME280;5892;43.412;24.612;2023-11-18T07:18:09;99342.75;;;6.59;100.00
11672;BME280;5892;43.412;24.612;2023-11-18T07:20:37;99345.94;;;6.61;100.00
11672;BME280;5892;43.412;24.612;2023-11-18T07:23:04;99347.97;;;6.55;100.00
11672;BME280;5892;43.412;24.612;2023-11-18T07:25:34;99355.91;;;6.65;100.00
11672;BME280;5892;43.412;24.612;2023-11-18T07:28:04;99348.56;;;6.66;100.00
11672;BME280;5892;43.412;24.612;2023-11-18T07:30:34;99357.22;;;6.68;100.00
11672;BME280;5892;43.412;24.612;2023-11-18T07:33:02;99361.91;;;6.76;100.00
11672;BME280;5892;43.412;24.612;2023-11-18T07:35:31;99339.44;;;6.70;100.00
11672;BME280;5892;43.412;24.612;2023-11-18T07:37:58;99354.53;;;6.90;100.00
11672;BME280;5892;43.412;24.612;2023-11-18T07:40:25;99362.06;;;6.93;100.00
11672;BME280;5892;43.412;24.612;2023-11-18T07:42:54;99306.22;;;6.60;100.00
11672;BME280;5892;43.412;24.612;2023-11-18T07:45:23;99337.25;;;6.72;100.00
11672;BME280;5892;43.412;24.612;2023-11-18T07:47:52;99359.75;;;6.87;100.00
11672;BME280;5892;43.412;24.612;2023-11-18T07:50:19;99359.03;;;6.95;100.00
11672;BME280;5892;43.412;24.612;2023-11-18T07:52:47;99356.22;;;6.86;100.00
11672;BME280;5892;43.412;24.612;2023-11-18T07:55:14;99362.44;;;6.78;100.00
11672;BME280;5892;43.412;24.612;2023-11-18T07:57:41;99348.94;;;6.73;100.00
11672;BME280;5892;43.412;24.612;2023-11-18T08:00:09;99363.06;;;6.75;100.00
11672;BME280;5892;43.412;24.612;2023-11-18T08:02:39;99353.56;;;6.72;100.00
11672;BME280;5892;43.412;24.612;2023-11-18T08:05:06;99362.66;;;6.68;100.00
11672;BME280;5892;43.412;24.612;2023-11-18T08:07:34;99368.50;;;6.75;100.00
11672;BME280;5892;43.412;24.612;2023-11-18T08:10:04;99322.56;;;6.37;100.00
11672;BME280;5892;43.412;24.612;2023-11-18T08:12:32;99366.09;;;6.60;100.00
11672;BME280;5892;43.412;24.612;2023-11-18T08:14:59;99368.47;;;6.53;100.00
11672;BME280;5892;43.412;24.612;2023-11-18T08:17:28;99310.00;;;6.14;100.00
11672;BME280;5892;43.412;24.612;2023-11-18T08:19:57;99346.28;;;6.46;100.00
11672;BME280;5892;43.412;24.612;2023-11-18T08:22:25;99318.66;;;6.16;100.00
11672;BME280;5892;43.412;24.612;2023-11-18T08:24:53;99372.69;;;6.59;100.00
11672;BME280;5892;43.412;24.612;2023-11-18T08:27:20;99385.66;;;6.62;100.00
11672;BME280;5892;43.412;24.612;2023-11-18T08:29:47;99367.47;;;6.49;100.00
11672;BME280;5892;43.412;24.612;2023-11-18T08:32:14;99390.66;;;6.46;100.00
11672;BME280;5892;43.412;24.612;2023-11-18T08:34:42;99411.91;;;6.58;100.00
11672;BME280;5892;43.412;24.612;2023-11-18T08:37:12;99380.56;;;6.47;100.00
11672;BME280;5892;43.412;24.612;2023-11-18T08:39:39;99381.44;;;6.56;100.00
11672;BME280;5892;43.412;24.612;2023-11-18T08:42:06;99340.78;;;6.37;100.00
11672;BME280;5892;43.412;24.612;2023-11-18T08:44:33;99299.84;;;6.06;100.00
11672;BME280;5892;43.412;24.612;2023-11-18T08:47:01;99328.63;;;6.07;100.00
11672;BME280;5892;43.412;24.612;2023-11-18T08:49:35;99379.75;;;6.46;100.00
11672;BME280;5892;43.412;24.612;2023-11-18T08:52:03;99376.22;;;6.59;100.00
11672;BME280;5892;43.412;24.612;2023-11-18T08:54:37;99382.19;;;6.48;100.00
11672;BME280;5892;43.412;24.612;2023-11-18T08:57:08;99373.09;;;6.38;100.00
11672;BME280;5892;43.412;24.612;2023-11-18T08:59:49;99362.31;;;6.47;100.00
11672;BME280;5892;43.412;24.612;2023-11-18T09:02:17;99361.47;;;6.60;100.00
11672;BME280;5892;43.412;24.612;2023-11-18T09:04:48;99360.72;;;6.46;100.00
11672;BME280;5892;43.412;24.612;2023-11-18T09:07:15;99359.19;;;6.54;100.00
11672;BME280;5892;43.412;24.612;2023-11-18T09:09:43;99369.06;;;6.50;100.00
11672;BME280;5892;43.412;24.612;2023-11-18T09:12:12;99316.66;;;6.22;100.00
11672;BME280;5892;43.412;24.612;2023-11-18T09:14:40;99375.53;;;6.54;100.00
11672;BME280;5892;43.412;24.612;2023-11-18T09:17:08;99333.34;;;6.29;100.00
11672;BME280;5892;43.412;24.612;2023-11-18T09:19:35;99356.66;;;6.57;100.00
11672;BME280;5892;43.412;24.612;2023-11-18T09:22:03;99313.38;;;6.33;100.00
11672;BME280;5892;43.412;24.612;2023-11-18T09:24:31;99353.59;;;6.36;100.00
11672;BME280;5892;43.412;24.612;2023-11-18T09:27:00;99333.22;;;6.34;100.00
11672;BME280;5892;43.412;24.612;2023-11-18T09:29:28;99351.22;;;6.57;100.00
11672;BME280;5892;43.412;24.612;2023-11-18T09:31:55;99358.06;;;6.55;100.00
11672;BME280;5892;43.412;24.612;2023-11-18T09:34:24;99366.09;;;6.60;100.00
11672;BME280;5892;43.412;24.612;2023-11-18T09:36:58;99387.88;;;6.60;100.00
11672;BME280;5892;43.412;24.612;2023-11-18T09:39:25;99345.91;;;6.38;100.00
11672;BME280;5892;43.412;24.612;2023-11-18T09:42:07;99374.38;;;6.68;100.00
11672;BME280;5892;43.412;24.612;2023-11-18T09:44:36;99376.59;;;6.66;100.00
11672;BME280;5892;43.412;24.612;2023-11-18T09:47:07;99344.97;;;6.57;100.00
11672;BME280;5892;43.412;24.612;2023-11-18T09:49:40;99360.69;;;6.82;100.00
11672;BME280;5892;43.412;24.612;2023-11-18T09:52:16;99352.16;;;6.75;100.00
11672;BME280;5892;43.412;24.612;2023-11-18T09:54:54;99363.97;;;6.93;100.00
11672;BME280;5892;43.412;24.612;2023-11-18T09:57:31;99394.44;;;6.95;100.00
11672;BME280;5892;43.412;24.612;2023-11-18T10:00:02;99224.41;;;5.98;100.00
11672;BME280;5892;43.412;24.612;2023-11-18T10:02:45;99395.97;;;6.87;100.00
11672;BME280;5892;43.412;24.612;2023-11-18T10:05:13;99401.28;;;6.92;100.00
11672;BME280;5892;43.412;24.612;2023-11-18T10:07:41;99393.25;;;6.87;100.00
11672;BME280;5892;43.412;24.612;2023-11-18T10:10:08;99380.38;;;6.79;100.00
11672;BME280;5892;43.412;24.612;2023-11-18T10:12:42;99391.50;;;6.91;100.00
11672;BME280;5892;43.412;24.612;2023-11-18T10:15:11;99392.69;;;6.76;100.00
11672;BME280;5892;43.412;24.612;2023-11-18T10:17:42;99386.06;;;6.69;100.00
11672;BME280;5892;43.412;24.612;2023-11-18T10:20:21;99395.50;;;6.85;100.00
11672;BME280;5892;43.412;24.612;2023-11-18T10:23:05;99400.53;;;6.78;100.00
11672;BME280;5892;43.412;24.612;2023-11-18T10:25:35;99405.38;;;6.81;100.00
11672;BME280;5892;43.412;24.612;2023-11-18T10:28:08;99413.41;;;6.86;100.00
11672;BME280;5892;43.412;24.612;2023-11-18T10:30:47;99405.13;;;6.91;100.00
11672;BME280;5892;43.412;24.612;2023-11-18T10:33:17;99396.78;;;6.88;100.00
11672;BME280;5892;43.412;24.612;2023-11-18T10:35:50;99349.41;;;6.53;100.00
11672;BME280;5892;43.412;24.612;2023-11-18T10:38:21;99389.34;;;6.79;100.00
11672;BME280;5892;43.412;24.612;2023-11-18T10:40:52;99393.66;;;6.80;100.00
11672;BME280;5892;43.412;24.612;2023-11-18T10:43:22;99400.72;;;6.81;100.00
11672;BME280;5892;43.412;24.612;2023-11-18T10:45:52;99388.09;;;6.86;100.00
11672;BME280;5892;43.412;24.612;2023-11-18T10:48:19;99392.25;;;6.83;100.00
11672;BME280;5892;43.412;24.612;2023-11-18T10:50:48;99375.97;;;6.69;100.00
11672;BME280;5892;43.412;24.612;2023-11-18T10:53:18;99361.00;;;6.80;100.00
11672;BME280;5892;43.412;24.612;2023-11-18T10:55:47;99372.78;;;6.90;100.00
11672;BME280;5892;43.412;24.612;2023-11-18T10:58:15;99382.88;;;6.89;100.00
11672;BME280;5892;43.412;24.612;2023-11-18T11:00:51;99377.72;;;6.88;100.00
11672;BME280;5892;43.412;24.612;2023-11-18T11:03:21;99349.53;;;6.70;100.00
11672;BME280;5892;43.412;24.612;2023-11-18T11:05:58;99311.91;;;6.50;100.00
11672;BME280;5892;43.412;24.612;2023-11-18T11:08:29;99389.00;;;6.95;100.00
11672;BME280;5892;43.412;24.612;2023-11-18T11:10:58;99377.56;;;7.06;100.00
11672;BME280;5892;43.412;24.612;2023-11-18T11:13:30;99332.84;;;6.63;100.00
11672;BME280;5892;43.412;24.612;2023-11-18T11:16:01;99373.00;;;7.02;100.00
11672;BME280;5892;43.412;24.612;2023-11-18T11:18:32;99360.06;;;7.07;100.00
11672;BME280;5892;43.412;24.612;2023-11-18T11:21:07;99360.44;;;6.92;100.00
11672;BME280;5892;43.412;24.612;2023-11-18T11:23:45;99377.97;;;7.00;100.00
11672;BME280;5892;43.412;24.612;2023-11-18T11:26:28;99373.00;;;7.02;100.00
11672;BME280;5892;43.412;24.612;2023-11-18T11:29:11;99369.59;;;6.96;100.00
11672;BME280;5892;43.412;24.612;2023-11-18T11:31:49;99380.50;;;6.96;100.00
11672;BME280;5892;43.412;24.612;2023-11-18T11:34:20;99375.69;;;6.93;100.00
11672;BME280;5892;43.412;24.612;2023-11-18T11:36:51;99380.44;;;6.88;100.00
11672;BME280;5892;43.412;24.612;2023-11-18T11:39:18;99386.06;;;6.91;100.00
11672;BME280;5892;43.412;24.612;2023-11-18T11:41:52;99336.16;;;6.37;100.00
11672;BME280;5892;43.412;24.612;2023-11-18T11:44:20;99365.41;;;6.68;100.00
11672;BME280;5892;43.412;24.612;2023-11-18T11:46:56;99377.53;;;6.84;100.00
11672;BME280;5892;43.412;24.612;2023-11-18T11:49:26;99391.75;;;6.81;100.00
11672;BME280;5892;43.412;24.612;2023-11-18T11:52:02;99377.66;;;6.79;100.00
11672;BME280;5892;43.412;24.612;2023-11-18T11:54:37;99394.97;;;6.83;100.00
11672;BME280;5892;43.412;24.612;2023-11-18T11:57:06;99358.16;;;6.63;100.00
11672;BME280;5892;43.412;24.612;2023-11-18T11:59:54;99336.22;;;6.46;100.00
11672;BME280;5892;43.412;24.612;2023-11-18T12:02:25;99393.88;;;6.84;100.00
11672;BME280;5892;43.412;24.612;2023-11-18T12:04:55;99391.28;;;6.79;100.00
11672;BME280;5892;43.412;24.612;2023-11-18T12:07:31;99387.22;;;6.76;100.00
11672;BME280;5892;43.412;24.612;2023-11-18T12:10:07;99386.75;;;6.74;100.00
11672;BME280;5892;43.412;24.612;2023-11-18T12:12:39;99373.56;;;6.68;100.00
11672;BME280;5892;43.412;24.612;2023-11-18T12:15:09;99386.75;;;6.74;100.00
11672;BME280;5892;43.412;24.612;2023-11-18T12:18:10;99386.66;;;6.66;100.00
11672;BME280;5892;43.412;24.612;2023-11-18T12:20:40;99351.63;;;6.51;100.00
11672;BME280;5892;43.412;24.612;2023-11-18T12:23:13;99310.41;;;6.21;100.00
11672;BME280;5892;43.412;24.612;2023-11-18T12:25:41;99389.88;;;6.68;100.00
11672;BME280;5892;43.412;24.612;2023-11-18T12:28:13;99379.81;;;6.55;100.00
11672;BME280;5892;43.412;24.612;2023-11-18T12:30:43;99381.59;;;6.73;100.00
11672;BME280;5892;43.412;24.612;2023-11-18T12:33:19;99371.47;;;6.51;100.00
11672;BME280;5892;43.412;24.612;2023-11-18T12:39:22;99388.28;;;6.67;100.00
11672;BME280;5892;43.412;24.612;2023-11-18T12:42:01;99380.91;;;6.67;100.00
11672;BME280;5892;43.412;24.612;2023-11-18T12:44:36;99362.50;;;6.51;100.00
11672;BME280;5892;43.412;24.612;2023-11-18T12:47:05;99385.84;;;6.65;100.00
11672;BME280;5892;43.412;24.612;2023-11-18T12:49:52;99382.03;;;6.66;100.00
11672;BME280;5892;43.412;24.612;2023-11-18T12:52:20;99383.91;;;6.44;100.00
11672;BME280;5892;43.412;24.612;2023-11-18T12:54:48;99389.31;;;6.57;100.00
11672;BME280;5892;43.412;24.612;2023-11-18T12:57:16;99316.34;;;6.10;100.00
11672;BME280;5892;43.412;24.612;2023-11-18T12:59:43;99389.50;;;6.61;100.00
11672;BME280;5892;43.412;24.612;2023-11-18T13:02:12;99389.50;;;6.61;100.00
11672;BME280;5892;43.412;24.612;2023-11-18T13:04:46;99395.44;;;6.63;100.00
11672;BME280;5892;43.412;24.612;2023-11-18T13:07:15;99322.38;;;6.20;100.00
11672;BME280;5892;43.412;24.612;2023-11-18T13:09:43;99396.38;;;6.58;100.00
11672;BME280;5892;43.412;24.612;2023-11-18T13:12:12;99388.16;;;6.36;100.00
11672;BME280;5892;43.412;24.612;2023-11-18T13:14:42;99390.75;;;6.41;100.00
11672;BME280;5892;43.412;24.612;2023-11-18T13:17:11;99415.31;;;6.50;100.00